RJAAKSEA

Guest
Details From RJAA - Narita Intl
To KSEA - Seattle Tacoma Intl
Flight Number -
Tags Generated
Created
Modified
Stats Distance 4,133 nm / 7,654 km
Max Altitude 0 ft / 0 m
Waypoints 4
Social Downloads 1
Likes 0
Share VATSIM

Download

Looking for another format? Having issues loading an existing format? Contact us
Advertisement - Login to hide

Notes

Generated

Route

RJAA PETPA ZIKUK KSEA

ID Type Via Altitude Latitude Longitude Leg Dist Tot Dist Heading (true) Name
O RJAA APT - 0 ft / 0 m 35.80271˚ 140.37991˚ - 0 nm - -
PETPA FIX - 0 ft / 0 m 51.00500˚ -132.68667˚ 3674 nm 3674 nm 46° / 112° -
ZIKUK FIX - 0 ft / 0 m 47.60419˚ -122.61874˚ 443 nm 4118 nm 114° / 121° -
O KSEA APT - 0 ft / 0 m 47.46383˚ -122.31786˚ 14 nm 4133 nm 125° / 125° -

Altitude Profile

Advertisement - Login to hide

Weather


0- 5 10 15 20 25 30 35+ Temperature / ° C

Clouds and Precipitation
Forecast for 2017-12-13 18:00 UTC. Updated 9 minutes ago

Ground ~20,000 ft ~40,000 ft Winds

RJAA

Details ICAO RJAA (NRT)
Name NARITA INTL
Region Japan
Timezone Asia/Tokyo (UTC+9.0)
Stats Elevation 141 ft / 43 m (AMSL)
Location 35.776552° 140.382770°
Runways 2
Magnetic Variation 7.405° W

METAR

RJAA 131500Z 32007KT 9999 FEW030 00/M06 Q1016 NOSIG

Decode

TAF

TAF RJAA 131105Z 1312/1418 32007KT 9999 FEW030= TAF RJBB 131105Z 1312/1418 31018KT 9999 FEW020 BKN045 BECMG 1312/1314 35015KT

Decode

Departure Runways

ID Width Length Bearing (true) Bearing (mag) Surface Threshold Offset Overrun Length
16L 196 ft / 60 m 7,162 ft / 2,183 m 149.61° 157.02° Asphalt 190 ft / 58 m 0 ft / 0 m
16R 196 ft / 60 m 13,142 ft / 4,006 m 149.61° 157.02° Asphalt 0 ft / 0 m 410 ft / 125 m
34L 196 ft / 60 m 13,142 ft / 4,006 m 329.62° 337.03° Asphalt 0 ft / 0 m 415 ft / 126 m
34R 196 ft / 60 m 7,162 ft / 2,183 m 329.62° 337.03° Asphalt 190 ft / 58 m 0 ft / 0 m

KSEA

Details ICAO KSEA (SEA)
Name Seattle Tacoma Intl
Region United States
Timezone America/Los_Angeles (UTC-8.0)
Stats Elevation 433 ft / 132 m (AMSL)
Location 47.450188° -122.312320°
Runways 3
Magnetic Variation 15.685° E

METAR

KSEA 131453Z 05008KT 10SM FEW200 03/00 A3040 RMK AO2 SLP304 T00280000 56002

Decode

TAF

TAF AMD KSEA 131421Z 1314/1418 35005KT P6SM SKC FM141100 04006KT 2SM BR SCT002 TEMPO 1414/1418 1/2SM FG VV002

Decode

Destination Runways

ID Width Length Bearing (true) Bearing (mag) Surface Threshold Offset Overrun Length
16C 151 ft / 46 m 9,429 ft / 2,874 m 180.34° 164.65° Concrete 0 ft / 0 m 223 ft / 68 m
16L 151 ft / 46 m 11,904 ft / 3,628 m 180.34° 164.65° Concrete 0 ft / 0 m 151 ft / 46 m
16R 151 ft / 46 m 8,503 ft / 2,592 m 180.34° 164.65° Concrete 0 ft / 0 m 164 ft / 50 m
34C 151 ft / 46 m 9,429 ft / 2,874 m 0.34° 344.65° Concrete 0 ft / 0 m 394 ft / 120 m
34L 151 ft / 46 m 8,503 ft / 2,592 m 0.34° 344.65° Concrete 0 ft / 0 m 394 ft / 120 m
34R 151 ft / 46 m 11,904 ft / 3,628 m 0.34° 344.65° Concrete 0 ft / 0 m 400 ft / 122 m

Approach Navaids

Runway Type Ident Frequency Range Bearing (true) Bearing (mag) Slope Elevation
16C Localiser ISZI 111.70 MHz 18 nm / 33 km 180.34° 164.65° - 355 ft / 108 m (AMSL)
16C Glidescope ISZI 111.70 MHz 10 nm / 19 km 180.34° 164.65° 3.00° 418 ft / 127 m (AMSL)
16C DME ISZI 111.70 MHz 18 nm / 33 km - - - 470 ft / 143 m (AMSL)
16L Localiser ISNQ 110.30 MHz 18 nm / 33 km 180.34° 164.66° - 338 ft / 103 m (AMSL)
16L Glidescope ISNQ 110.30 MHz 10 nm / 19 km 180.34° 164.66° 3.00° 425 ft / 130 m (AMSL)
16L DME ISNQ 110.30 MHz 18 nm / 33 km - - - 369 ft / 112 m (AMSL)
16R Localiser ICJL 110.75 MHz 18 nm / 33 km 180.34° 164.65° - 410 ft / 125 m (AMSL)
16R Glidescope ICJL 110.75 MHz 10 nm / 19 km 180.34° 164.65° 3.00° 410 ft / 125 m (AMSL)
16R DME ICJL 110.75 MHz 18 nm / 33 km - - - 410 ft / 125 m (AMSL)
34C Localiser ITUC 111.70 MHz 18 nm / 33 km 0.34° 344.65° - 422 ft / 129 m (AMSL)
34C Glidescope ITUC 111.70 MHz 10 nm / 19 km 0.34° 344.65° 3.00° 367 ft / 112 m (AMSL)
34C DME ITUC 111.70 MHz 18 nm / 33 km - - - 470 ft / 143 m (AMSL)
34L Localiser IBEJ 110.75 MHz 18 nm / 33 km 0.34° 344.65° - 433 ft / 132 m (AMSL)
34L Glidescope IBEJ 110.75 MHz 10 nm / 19 km 0.34° 344.65° 3.00° 360 ft / 110 m (AMSL)
34L DME IBEJ 110.75 MHz 18 nm / 33 km - - - 410 ft / 125 m (AMSL)
34R Localiser ISEA 110.30 MHz 18 nm / 33 km 0.34° 344.66° - 428 ft / 130 m (AMSL)
34R Glidescope ISEA 110.30 MHz 10 nm / 19 km 0.34° 344.66° 2.75° 355 ft / 108 m (AMSL)
34R DME ISEA 110.30 MHz 18 nm / 33 km - - - 469 ft / 143 m (AMSL)

Popular Alternatives